createdAt,value
2023-11-27T00:00:29.696Z,95.20
2023-11-27T00:01:20.235Z,94.68
2023-11-27T00:02:20.223Z,94.37
2023-11-27T00:03:20.124Z,94.79
2023-11-27T00:04:20.314Z,95.10
2023-11-27T00:05:20.098Z,95.72
2023-11-27T00:06:20.116Z,95.31
2023-11-27T00:07:20.128Z,95.72
2023-11-27T00:08:20.410Z,96.14
2023-11-27T00:09:20.055Z,96.24
2023-11-27T00:10:20.212Z,96.24
2023-11-27T00:11:20.035Z,96.45
2023-11-27T00:12:20.037Z,96.03
2023-11-27T00:13:20.082Z,95.83
2023-11-27T00:14:20.020Z,95.72
2023-11-27T00:15:20.030Z,95.41
2023-11-27T00:16:20.066Z,95.31
2023-11-27T00:17:19.977Z,95.93
2023-11-27T00:18:20.032Z,96.39
2023-11-27T00:19:19.957Z,95.46
2023-11-27T00:20:19.952Z,95.56
2023-11-27T00:21:19.945Z,96.81
2023-11-27T00:22:19.981Z,97.43
2023-11-27T00:23:19.910Z,97.85
2023-11-27T00:24:19.919Z,98.36
2023-11-27T00:25:19.904Z,98.05
2023-11-27T00:26:19.921Z,97.95
2023-11-27T00:27:19.869Z,98.26
2023-11-27T00:28:19.908Z,98.57
2023-11-27T00:29:19.842Z,98.57
2023-11-27T00:30:19.864Z,98.68
2023-11-27T00:31:19.912Z,97.95
2023-11-27T00:32:21.451Z,97.78
2023-11-27T00:33:19.839Z,97.89
2023-11-27T00:34:19.861Z,96.75
2023-11-27T00:35:19.784Z,96.33
2023-11-27T00:36:19.790Z,96.70
2023-11-27T00:37:19.817Z,97.43
2023-11-27T00:38:19.762Z,97.78
2023-11-27T00:39:19.805Z,97.68
2023-11-27T00:40:19.818Z,97.58
2023-11-27T00:41:19.728Z,97.78
2023-11-27T00:42:19.731Z,97.78
2023-11-27T00:43:19.735Z,97.47
2023-11-27T00:44:19.717Z,97.47
2023-11-27T00:45:19.694Z,97.68
2023-11-27T00:46:19.700Z,97.95
2023-11-27T00:47:19.692Z,98.10
2023-11-27T00:48:19.661Z,98.20
2023-11-27T00:49:19.703Z,97.95
2023-11-27T00:50:19.681Z,97.74
2023-11-27T00:51:19.637Z,97.95
2023-11-27T00:52:19.640Z,98.36
2023-11-27T00:53:20.923Z,98.68
2023-11-27T00:54:19.604Z,98.68
2023-11-27T00:55:19.632Z,98.57
2023-11-27T00:56:19.578Z,98.26
2023-11-27T00:57:19.558Z,98.26
2023-11-27T00:58:19.593Z,98.05
2023-11-27T00:59:19.536Z,97.85
2023-11-27T01:00:19.538Z,97.12
2023-11-27T01:01:19.563Z,96.70
2023-11-27T01:02:19.572Z,96.91
2023-11-27T01:03:19.609Z,97.53
2023-11-27T01:04:19.519Z,98.16
2023-11-27T01:05:19.478Z,97.89
2023-11-27T01:06:19.486Z,97.99
2023-11-27T01:07:19.708Z,98.36
2023-11-27T01:08:19.456Z,98.82
2023-11-27T01:09:19.489Z,98.93
2023-11-27T01:10:19.545Z,99.03
2023-11-27T01:11:19.412Z,99.34
2023-11-27T01:12:19.474Z,98.93
2023-11-27T01:13:19.441Z,98.72
2023-11-27T01:14:19.397Z,98.41
2023-11-27T01:15:19.379Z,98.30
2023-11-27T01:16:19.385Z,98.51
2023-11-27T01:17:19.354Z,98.68
2023-11-27T01:18:19.388Z,98.82
2023-11-27T01:19:19.375Z,98.82
2023-11-27T01:20:19.336Z,99.13
2023-11-27T01:21:19.328Z,99.24
2023-11-27T01:22:19.390Z,99.34
2023-11-27T01:23:19.288Z,99.34
2023-11-27T01:24:19.288Z,99.44
2023-11-27T01:25:19.300Z,99.34
2023-11-27T01:26:19.335Z,99.13
2023-11-27T01:27:19.242Z,98.93
2023-11-27T01:28:19.242Z,98.93
2023-11-27T01:29:19.235Z,99.13
2023-11-27T01:30:19.221Z,99.03
2023-11-27T01:31:19.230Z,98.82
2023-11-27T01:32:19.239Z,98.61
2023-11-27T01:33:19.296Z,98.57
2023-11-27T01:34:19.281Z,98.78
2023-11-27T01:35:19.182Z,98.88
2023-11-27T01:36:19.183Z,98.47
2023-11-27T01:37:19.157Z,98.05
2023-11-27T01:38:19.176Z,98.16
2023-11-27T01:39:19.113Z,97.95
2023-11-27T01:40:19.153Z,97.64
2023-11-27T01:41:19.095Z,97.33
2023-11-27T01:42:19.124Z,97.12
2023-11-27T01:43:19.130Z,97.22
2023-11-27T01:44:19.131Z,97.22
2023-11-27T01:45:19.056Z,97.74
2023-11-27T01:46:19.165Z,97.95
2023-11-27T01:47:19.072Z,97.85
2023-11-27T01:48:19.067Z,97.85
2023-11-27T01:49:19.072Z,97.64
2023-11-27T01:50:19.062Z,97.33
2023-11-27T01:51:19.007Z,96.70
2023-11-27T01:52:19.030Z,96.08
2023-11-27T01:53:18.972Z,96.08
2023-11-27T01:54:19.093Z,96.29
2023-11-27T01:55:19.061Z,95.98
2023-11-27T01:56:18.984Z,95.77
2023-11-27T01:57:18.933Z,96.08
2023-11-27T01:58:18.972Z,96.39
2023-11-27T01:59:18.922Z,96.08
2023-11-27T02:00:18.937Z,96.50
2023-11-27T02:01:19.158Z,96.81
2023-11-27T02:02:19.049Z,96.91
2023-11-27T02:03:18.952Z,97.33
2023-11-27T02:04:18.933Z,97.43
2023-11-27T02:05:18.850Z,97.12
2023-11-27T02:06:18.854Z,96.29
2023-11-27T02:07:18.917Z,96.08
2023-11-27T02:08:18.865Z,96.29
2023-11-27T02:09:18.814Z,95.77
2023-11-27T02:10:18.887Z,95.98
2023-11-27T02:11:18.795Z,96.39
2023-11-27T02:12:18.792Z,96.19
2023-11-27T02:13:18.805Z,95.98
2023-11-27T02:14:18.807Z,96.19
2023-11-27T02:15:18.748Z,96.29
2023-11-27T02:16:18.827Z,96.08
2023-11-27T02:17:18.724Z,95.77
2023-11-27T02:18:18.730Z,95.04
2023-11-27T02:19:18.716Z,95.46
2023-11-27T02:20:18.759Z,95.56
2023-11-27T02:21:18.674Z,95.36
2023-11-27T02:22:18.703Z,95.77
2023-11-27T02:23:18.685Z,95.87
2023-11-27T02:24:18.671Z,96.08
2023-11-27T02:25:18.696Z,95.15
2023-11-27T02:26:18.668Z,94.84
2023-11-27T02:27:18.618Z,94.94
2023-11-27T02:28:18.702Z,96.08
2023-11-27T02:29:18.628Z,96.39
2023-11-27T02:30:18.603Z,96.39
2023-11-27T02:31:18.610Z,96.70
2023-11-27T02:32:18.612Z,95.87
2023-11-27T02:33:18.554Z,95.36
2023-11-27T02:34:18.706Z,94.94
2023-11-27T02:35:18.588Z,95.25
2023-11-27T02:36:21.490Z,95.25
2023-11-27T02:37:18.547Z,95.04
2023-11-27T02:38:18.511Z,95.15
2023-11-27T02:39:18.502Z,95.98
2023-11-27T02:40:18.553Z,95.67
2023-11-27T02:41:18.486Z,95.46
2023-11-27T02:42:18.474Z,95.98
2023-11-27T02:43:18.458Z,96.60
2023-11-27T02:44:18.594Z,96.60
2023-11-27T02:45:18.422Z,96.60
2023-11-27T02:46:18.527Z,96.64
2023-11-27T02:47:18.432Z,95.67
2023-11-27T02:48:18.410Z,95.87
2023-11-27T02:49:18.469Z,95.56
2023-11-27T02:50:18.370Z,94.84
2023-11-27T02:51:18.381Z,95.19
2023-11-27T02:52:18.469Z,95.50
2023-11-27T02:53:18.362Z,95.61
2023-11-27T02:54:18.385Z,95.36
2023-11-27T02:55:18.475Z,95.56
2023-11-27T02:56:18.321Z,95.19
2023-11-27T02:57:19.104Z,95.19
2023-11-27T02:58:18.370Z,95.40
2023-11-27T02:59:18.292Z,95.92
2023-11-27T03:00:18.276Z,96.64
2023-11-27T03:01:18.381Z,97.06
2023-11-27T03:02:18.381Z,97.02
2023-11-27T03:03:18.271Z,96.75
2023-11-27T03:04:18.295Z,96.85
2023-11-27T03:05:18.236Z,95.29
2023-11-27T03:06:18.214Z,93.80
2023-11-27T03:07:18.364Z,93.49
2023-11-27T03:08:18.187Z,93.38
2023-11-27T03:09:18.192Z,93.49
2023-11-27T03:10:18.223Z,94.01
2023-11-27T03:11:18.191Z,94.94
2023-11-27T03:12:18.145Z,95.15
2023-11-27T03:13:18.235Z,94.73
2023-11-27T03:14:18.122Z,93.18
2023-11-27T03:15:18.122Z,93.18
2023-11-27T03:16:18.176Z,93.38
2023-11-27T03:17:18.147Z,93.07
2023-11-27T03:18:18.097Z,92.76
2023-11-27T03:19:18.116Z,91.72
2023-11-27T03:20:18.057Z,91.62
2023-11-27T03:21:18.065Z,92.14
2023-11-27T03:22:18.150Z,93.28
2023-11-27T03:23:18.084Z,94.63
2023-11-27T03:24:18.044Z,95.15
2023-11-27T03:25:18.041Z,95.46
2023-11-27T03:26:18.034Z,95.50
2023-11-27T03:27:18.012Z,94.78
2023-11-27T03:28:18.003Z,93.90
2023-11-27T03:29:17.983Z,93.38
2023-11-27T03:30:18.015Z,93.28
2023-11-27T03:31:18.060Z,93.28
2023-11-27T03:32:17.948Z,92.66
2023-11-27T03:33:17.942Z,92.18
2023-11-27T03:34:17.944Z,92.59
2023-11-27T03:35:17.932Z,93.12
2023-11-27T03:36:17.924Z,93.84
2023-11-27T03:37:17.929Z,93.32
2023-11-27T03:38:17.872Z,92.69
2023-11-27T03:39:17.878Z,92.80
2023-11-27T03:40:17.884Z,92.59
2023-11-27T03:41:17.932Z,92.07
2023-11-27T03:42:17.884Z,91.86
2023-11-27T03:43:17.921Z,92.38
2023-11-27T03:44:17.807Z,92.69
2023-11-27T03:45:17.814Z,92.80
2023-11-27T03:46:17.864Z,92.69
2023-11-27T03:47:17.797Z,93.12
2023-11-27T03:48:17.817Z,93.12
2023-11-27T03:49:17.815Z,93.43
2023-11-27T03:50:17.759Z,93.63
2023-11-27T03:51:17.750Z,93.32
2023-11-27T03:52:17.763Z,92.69
2023-11-27T03:53:17.733Z,92.49
2023-11-27T03:54:17.738Z,92.38
2023-11-27T03:55:17.725Z,92.28
2023-11-27T03:56:17.693Z,92.18
2023-11-27T03:57:17.705Z,92.49
2023-11-27T03:58:17.706Z,92.49
2023-11-27T03:59:17.677Z,92.69
2023-11-27T04:00:17.669Z,92.90
2023-11-27T04:01:17.728Z,92.07
2023-11-27T04:02:17.680Z,92.38
2023-11-27T04:03:17.667Z,92.07
2023-11-27T04:04:17.648Z,92.49
2023-11-27T04:05:17.605Z,92.69
2023-11-27T04:06:17.612Z,92.90
2023-11-27T04:07:17.603Z,92.90
2023-11-27T04:08:17.979Z,92.90
2023-11-27T04:09:17.560Z,92.90
2023-11-27T04:10:17.894Z,92.80
2023-11-27T04:11:17.547Z,93.12
2023-11-27T04:12:17.534Z,93.43
2023-11-27T04:13:17.567Z,92.69
2023-11-27T04:14:17.497Z,92.07
2023-11-27T04:15:17.505Z,92.38
2023-11-27T04:16:17.660Z,91.97
2023-11-27T04:17:17.525Z,91.97
2023-11-27T04:18:17.498Z,93.12
2023-11-27T04:19:17.534Z,93.95
2023-11-27T04:20:17.427Z,94.67
2023-11-27T04:21:17.464Z,94.26
2023-11-27T04:22:17.423Z,94.36
2023-11-27T04:23:17.426Z,95.29
2023-11-27T04:24:17.479Z,95.92
2023-11-27T04:25:17.430Z,96.12
2023-11-27T04:26:17.434Z,96.23
2023-11-27T04:27:17.414Z,96.23
2023-11-27T04:28:17.394Z,96.12
2023-11-27T04:29:17.383Z,95.61
2023-11-27T04:30:17.386Z,95.40
2023-11-27T04:31:17.462Z,95.81
2023-11-27T04:32:17.397Z,95.61
2023-11-27T04:33:17.312Z,95.61
2023-11-27T04:34:17.458Z,95.71
2023-11-27T04:35:17.317Z,95.71
2023-11-27T04:36:17.312Z,95.92
2023-11-27T04:37:17.344Z,95.81
2023-11-27T04:38:17.266Z,95.40
2023-11-27T04:39:17.249Z,95.19
2023-11-27T04:40:17.288Z,95.50
2023-11-27T04:41:17.238Z,95.81
2023-11-27T04:42:17.227Z,94.88
2023-11-27T04:43:17.276Z,93.95
2023-11-27T04:44:17.177Z,94.67
2023-11-27T04:45:17.188Z,95.40
2023-11-27T04:46:17.258Z,96.23
2023-11-27T04:47:17.236Z,96.44
2023-11-27T04:48:17.161Z,96.54
2023-11-27T04:49:17.173Z,96.75
2023-11-27T04:50:17.116Z,96.85
2023-11-27T04:51:17.118Z,96.64
2023-11-27T04:52:17.129Z,96.75
2023-11-27T04:53:17.130Z,97.06
2023-11-27T04:54:17.075Z,97.16
2023-11-27T04:55:17.159Z,96.95
2023-11-27T04:56:17.057Z,96.64
2023-11-27T04:57:17.077Z,96.33
2023-11-27T04:58:17.061Z,96.12
2023-11-27T04:59:17.096Z,96.02
2023-11-27T05:00:17.034Z,96.44
2023-11-27T05:01:17.050Z,96.44
2023-11-27T05:02:17.044Z,96.02
2023-11-27T05:03:17.002Z,96.02
2023-11-27T05:04:17.079Z,96.23
2023-11-27T05:05:17.002Z,96.33
2023-11-27T05:06:16.969Z,96.64
2023-11-27T05:07:16.983Z,96.44
2023-11-27T05:08:16.939Z,96.33
2023-11-27T05:09:16.937Z,96.27
2023-11-27T05:10:16.918Z,95.61
2023-11-27T05:11:16.956Z,95.29
2023-11-27T05:12:24.364Z,95.19
2023-11-27T05:13:16.953Z,94.98
2023-11-27T05:14:16.876Z,94.88
2023-11-27T05:15:16.873Z,94.46
2023-11-27T05:16:16.864Z,95.09
2023-11-27T05:17:16.929Z,95.29
2023-11-27T05:18:16.840Z,94.36
2023-11-27T05:19:16.866Z,93.74
2023-11-27T05:20:16.809Z,93.84
2023-11-27T05:21:16.807Z,93.95
2023-11-27T05:22:16.840Z,94.36
2023-11-27T05:23:16.856Z,94.67
2023-11-27T05:24:16.762Z,94.36
2023-11-27T05:25:16.806Z,94.57
2023-11-27T05:26:16.751Z,94.67
2023-11-27T05:27:16.743Z,94.15
2023-11-27T05:28:16.749Z,94.26
2023-11-27T05:29:16.779Z,94.46
2023-11-27T05:30:16.719Z,93.95
2023-11-27T05:31:16.848Z,93.01
2023-11-27T05:32:16.712Z,92.49
2023-11-27T05:33:16.678Z,92.69
2023-11-27T05:34:16.697Z,93.57
2023-11-27T05:35:16.730Z,93.99
2023-11-27T05:36:16.646Z,93.68
2023-11-27T05:37:16.719Z,93.37
2023-11-27T05:38:16.618Z,92.74
2023-11-27T05:39:16.686Z,93.37
2023-11-27T05:40:16.640Z,93.88
2023-11-27T05:41:16.624Z,93.99
2023-11-27T05:42:16.582Z,93.88
2023-11-27T05:43:16.627Z,92.84
2023-11-27T05:44:18.544Z,91.70
2023-11-27T05:45:16.564Z,90.97
2023-11-27T05:46:16.573Z,91.91
2023-11-27T05:47:16.653Z,92.84
2023-11-27T05:48:16.549Z,92.43
2023-11-27T05:49:16.573Z,92.43
2023-11-27T05:50:16.502Z,91.28
2023-11-27T05:51:16.496Z,90.97
2023-11-27T05:52:16.523Z,92.11
2023-11-27T05:53:19.351Z,91.18
2023-11-27T05:55:28.212Z,92.63
2023-11-27T05:56:29.183Z,90.56
2023-11-27T05:57:29.157Z,90.35
2023-11-27T05:58:29.274Z,90.45
2023-11-27T05:59:29.151Z,91.39
2023-11-27T06:00:29.146Z,91.60
2023-11-27T06:01:29.150Z,91.60
2023-11-27T06:02:29.149Z,92.11
2023-11-27T06:03:29.188Z,91.49
2023-11-27T06:04:29.165Z,90.14
2023-11-27T06:05:29.078Z,90.35
2023-11-27T06:06:29.095Z,90.14
2023-11-27T06:07:29.104Z,89.42
2023-11-27T06:08:29.087Z,89.73
2023-11-27T06:09:29.112Z,90.14
2023-11-27T06:10:29.066Z,90.45
2023-11-27T06:11:29.007Z,90.25
2023-11-27T06:12:29.013Z,89.73
2023-11-27T06:13:29.029Z,90.45
2023-11-27T06:14:29.031Z,90.04
2023-11-27T06:15:28.988Z,90.66
2023-11-27T06:16:29.077Z,89.94
2023-11-27T06:17:28.971Z,90.04
2023-11-27T06:18:29.044Z,89.73
2023-11-27T06:19:28.961Z,90.35
2023-11-27T06:20:28.936Z,89.52
2023-11-27T06:21:28.916Z,89.94
2023-11-27T06:22:28.981Z,89.94
2023-11-27T06:23:28.895Z,90.25
2023-11-27T06:24:28.970Z,91.18
2023-11-27T06:25:28.887Z,91.02
2023-11-27T06:26:28.865Z,90.81
2023-11-27T06:27:28.851Z,91.39
2023-11-27T06:28:28.882Z,91.08
2023-11-27T06:29:28.835Z,91.08
2023-11-27T06:30:28.862Z,91.70
2023-11-27T06:31:28.837Z,91.80
2023-11-27T06:32:28.882Z,92.43
2023-11-27T06:33:28.913Z,90.87
2023-11-27T06:34:28.777Z,91.39
2023-11-27T06:35:28.715Z,91.80
2023-11-27T06:36:28.780Z,91.28
2023-11-27T06:37:28.759Z,91.60
2023-11-27T06:38:28.700Z,91.49
2023-11-27T06:39:28.702Z,91.08
2023-11-27T06:40:34.558Z,90.87
2023-11-27T06:41:28.644Z,90.77
2023-11-27T06:42:28.665Z,90.87
2023-11-27T06:43:28.805Z,90.56
2023-11-27T06:44:28.639Z,91.08
2023-11-27T06:45:28.631Z,91.80
2023-11-27T06:46:28.675Z,92.11
2023-11-27T06:47:28.602Z,90.97
2023-11-27T06:48:28.640Z,90.87
2023-11-27T06:49:28.612Z,90.87
2023-11-27T06:50:28.569Z,90.97
2023-11-27T06:51:28.537Z,90.35
2023-11-27T06:52:28.618Z,90.77
2023-11-27T06:53:28.514Z,91.39
2023-11-27T06:54:28.547Z,92.11
2023-11-27T06:55:28.563Z,93.05
2023-11-27T06:56:28.500Z,93.26
2023-11-27T06:57:28.478Z,94.30
2023-11-27T06:58:28.636Z,94.82
2023-11-27T06:59:28.467Z,93.10
2023-11-27T07:00:28.461Z,93.41
2023-11-27T07:01:28.522Z,93.30
2023-11-27T07:02:28.542Z,93.51
2023-11-27T07:03:28.446Z,94.34
2023-11-27T07:04:28.564Z,94.76
2023-11-27T07:05:28.389Z,94.76
2023-11-27T07:06:28.408Z,94.96
2023-11-27T07:07:28.402Z,94.86
2023-11-27T07:08:28.362Z,94.65
2023-11-27T07:09:28.354Z,94.24
2023-11-27T07:10:28.454Z,94.76
2023-11-27T07:11:28.318Z,95.17
2023-11-27T07:12:28.322Z,95.07
2023-11-27T07:13:28.371Z,94.13
2023-11-27T07:14:28.341Z,94.03
2023-11-27T07:15:28.274Z,94.24
2023-11-27T07:16:28.384Z,94.03
2023-11-27T07:17:28.348Z,93.72
2023-11-27T07:18:32.495Z,93.93
2023-11-27T07:19:28.284Z,93.72
2023-11-27T07:20:28.249Z,92.88
2023-11-27T07:21:28.217Z,92.88
2023-11-27T07:22:28.388Z,92.47
2023-11-27T07:23:28.294Z,92.36
2023-11-27T07:24:28.201Z,92.88
2023-11-27T07:25:28.182Z,91.85
2023-11-27T07:26:28.187Z,91.12
2023-11-27T07:27:28.269Z,91.74
2023-11-27T07:28:28.293Z,92.47
2023-11-27T07:29:28.133Z,93.10
2023-11-27T07:30:28.131Z,92.78
2023-11-27T07:31:28.271Z,92.88
2023-11-27T07:32:28.298Z,93.51
2023-11-27T07:33:28.120Z,94.03
2023-11-27T07:34:28.234Z,94.03
2023-11-27T07:35:28.073Z,94.03
2023-11-27T07:36:28.085Z,94.03
2023-11-27T07:37:28.081Z,93.72
2023-11-27T07:38:28.076Z,94.24
2023-11-27T07:39:28.065Z,93.93
2023-11-27T07:40:28.093Z,93.10
2023-11-27T07:41:28.146Z,92.68
2023-11-27T07:42:28.016Z,91.95
2023-11-27T07:43:28.029Z,91.53
2023-11-27T07:44:27.999Z,92.01
2023-11-27T07:45:28.056Z,92.22
2023-11-27T07:46:28.086Z,92.78
2023-11-27T07:47:27.972Z,92.63
2023-11-27T07:48:28.027Z,92.43
2023-11-27T07:49:27.954Z,92.43
2023-11-27T07:50:27.959Z,92.01
2023-11-27T07:51:27.916Z,91.18
2023-11-27T07:52:27.940Z,90.77
2023-11-27T07:53:27.877Z,90.56
2023-11-27T07:54:27.869Z,90.56
2023-11-27T07:55:27.868Z,90.45
2023-11-27T07:56:27.882Z,90.77
2023-11-27T07:57:27.876Z,91.28
2023-11-27T07:58:27.880Z,91.18
2023-11-27T07:59:27.834Z,89.73
2023-11-27T08:00:27.971Z,89.73
2023-11-27T08:01:27.806Z,89.73
2023-11-27T08:02:27.814Z,89.73
2023-11-27T08:03:27.840Z,90.87
2023-11-27T08:04:27.881Z,90.56
2023-11-27T08:05:27.804Z,90.45
2023-11-27T08:06:27.777Z,90.87
2023-11-27T08:07:27.831Z,91.39
2023-11-27T08:08:27.728Z,89.83
2023-11-27T08:09:27.698Z,90.35
2023-11-27T08:10:27.782Z,90.66
2023-11-27T08:11:27.718Z,91.08
2023-11-27T08:12:27.680Z,90.97
2023-11-27T08:13:27.711Z,90.77
2023-11-27T08:14:27.665Z,89.73
2023-11-27T08:15:27.661Z,89.94
2023-11-27T08:16:27.687Z,89.31
2023-11-27T08:17:28.246Z,89.42
2023-11-27T08:18:27.617Z,90.25
2023-11-27T08:19:27.682Z,90.14
2023-11-27T08:20:27.598Z,91.39
2023-11-27T08:21:27.584Z,92.01
2023-11-27T08:22:27.625Z,92.11
2023-11-27T08:23:27.561Z,91.91
2023-11-27T08:24:27.641Z,92.11
2023-11-27T08:25:27.589Z,91.39
2023-11-27T08:26:27.540Z,90.35
2023-11-27T08:27:27.521Z,90.25
2023-11-27T08:28:27.544Z,90.14
2023-11-27T08:29:27.493Z,90.56
2023-11-27T08:30:27.575Z,89.83
2023-11-27T08:31:27.514Z,89.52
2023-11-27T08:32:27.496Z,89.83
2023-11-27T08:33:27.465Z,90.35
2023-11-27T08:34:27.475Z,89.73
2023-11-27T08:35:27.420Z,89.83
2023-11-27T08:36:27.486Z,89.94
2023-11-27T08:37:27.459Z,90.04
2023-11-27T08:38:27.406Z,90.04
2023-11-27T08:39:27.412Z,89.73
2023-11-27T08:40:27.417Z,90.04
2023-11-27T08:41:27.361Z,89.42
2023-11-27T08:42:27.404Z,89.83
2023-11-27T08:43:27.389Z,89.83
2023-11-27T08:44:27.351Z,89.21
2023-11-27T08:45:27.375Z,89.52
2023-11-27T08:46:27.377Z,89.83
2023-11-27T08:47:27.376Z,89.69
2023-11-27T08:48:27.316Z,89.06
2023-11-27T08:49:27.354Z,90.52
2023-11-27T08:50:27.403Z,91.55
2023-11-27T08:51:27.285Z,91.55
2023-11-27T08:52:27.315Z,89.58
2023-11-27T08:53:27.260Z,89.31
2023-11-27T08:54:27.271Z,90.77
2023-11-27T08:55:27.246Z,89.73
2023-11-27T08:56:27.238Z,90.25
2023-11-27T08:57:27.222Z,91.39
2023-11-27T08:58:27.237Z,90.97
2023-11-27T08:59:27.223Z,91.70
2023-11-27T09:00:27.172Z,92.07
2023-11-27T09:01:27.223Z,91.45
2023-11-27T09:02:27.237Z,91.76
2023-11-27T09:03:27.166Z,91.97
2023-11-27T09:04:27.159Z,91.55
2023-11-27T09:05:27.184Z,90.83
2023-11-27T09:06:27.110Z,91.14
2023-11-27T09:07:27.144Z,92.07
2023-11-27T09:08:27.085Z,92.18
2023-11-27T09:09:27.070Z,92.49
2023-11-27T09:10:27.160Z,93.12
2023-11-27T09:11:27.473Z,93.22
2023-11-27T09:12:27.045Z,92.18
2023-11-27T09:13:27.066Z,90.93
2023-11-27T09:14:27.057Z,91.76
2023-11-27T09:15:27.041Z,91.86
2023-11-27T09:16:27.095Z,92.28
2023-11-27T09:17:27.147Z,92.90
2023-11-27T09:18:26.978Z,91.86
2023-11-27T09:19:27.021Z,92.18
2023-11-27T09:20:26.994Z,92.90
2023-11-27T09:21:26.954Z,93.53
2023-11-27T09:22:26.942Z,93.43
2023-11-27T09:23:26.996Z,92.59
2023-11-27T09:24:26.902Z,92.38
2023-11-27T09:25:27.256Z,92.59
2023-11-27T09:26:26.884Z,92.28
2023-11-27T09:27:26.890Z,92.90
2023-11-27T09:28:26.885Z,93.01
2023-11-27T09:29:26.892Z,92.69
2023-11-27T09:30:26.840Z,93.01
2023-11-27T09:31:26.934Z,92.69
2023-11-27T09:32:26.904Z,93.12
2023-11-27T09:33:26.824Z,92.38
2023-11-27T09:34:26.834Z,92.74
2023-11-27T09:35:26.796Z,93.37
2023-11-27T09:36:26.769Z,93.95
2023-11-27T09:37:26.851Z,94.51
2023-11-27T09:38:26.772Z,93.78
2023-11-27T09:39:26.756Z,93.68
2023-11-27T09:40:26.810Z,94.30
2023-11-27T09:41:26.788Z,94.40
2023-11-27T09:42:38.831Z,94.40
2023-11-27T09:43:27.963Z,94.20
2023-11-27T09:44:26.745Z,93.37
2023-11-27T09:45:26.699Z,93.88
2023-11-27T09:46:26.685Z,94.30
2023-11-27T09:47:26.737Z,94.09
2023-11-27T09:48:26.701Z,94.40
2023-11-27T09:49:26.988Z,94.71
2023-11-27T09:50:26.664Z,94.40
2023-11-27T09:51:26.642Z,94.61
2023-11-27T09:52:26.653Z,93.88
2023-11-27T09:53:26.651Z,94.20
2023-11-27T09:54:26.616Z,95.03
2023-11-27T09:55:26.677Z,95.75
2023-11-27T09:56:26.604Z,96.17
2023-11-27T09:57:26.572Z,96.37
2023-11-27T09:58:26.609Z,96.58
2023-11-27T09:59:26.565Z,96.37
2023-11-27T10:00:26.566Z,96.31
2023-11-27T10:01:27.079Z,94.51
2023-11-27T10:02:26.634Z,94.76
2023-11-27T10:03:26.998Z,95.38
2023-11-27T10:04:26.701Z,94.76
2023-11-27T10:05:26.629Z,94.13
2023-11-27T10:06:26.474Z,94.76
2023-11-27T10:07:26.499Z,94.65
2023-11-27T10:08:26.437Z,95.17
2023-11-27T10:09:26.441Z,95.48
2023-11-27T10:10:26.460Z,95.90
2023-11-27T10:11:26.417Z,95.69
2023-11-27T10:12:26.440Z,95.90
2023-11-27T10:14:36.905Z,95.90
2023-11-27T10:15:26.380Z,96.00
2023-11-27T10:16:26.453Z,96.31
2023-11-27T10:17:26.482Z,96.62
2023-11-27T10:18:26.453Z,96.42
2023-11-27T10:19:26.447Z,95.59
2023-11-27T10:20:26.305Z,95.48
2023-11-27T10:21:26.308Z,94.55
2023-11-27T10:22:26.348Z,94.13
2023-11-27T10:23:26.283Z,94.55
2023-11-27T10:24:26.274Z,94.96
2023-11-27T10:25:26.306Z,95.28
2023-11-27T10:26:26.242Z,95.28
2023-11-27T10:27:26.251Z,94.55
2023-11-27T10:28:26.274Z,94.13
2023-11-27T10:29:26.240Z,94.24
2023-11-27T10:30:26.219Z,94.45
2023-11-27T10:31:26.321Z,95.38
2023-11-27T10:32:26.210Z,95.48
2023-11-27T10:33:26.169Z,94.55
2023-11-27T10:34:26.197Z,95.28
2023-11-27T10:35:26.186Z,96.00
2023-11-27T10:36:26.130Z,95.48
2023-11-27T10:37:26.173Z,95.28
2023-11-27T10:38:26.108Z,95.07
2023-11-27T10:39:26.122Z,94.96
2023-11-27T10:40:26.146Z,95.28
2023-11-27T10:41:26.132Z,96.00
2023-11-27T10:42:26.069Z,96.31
2023-11-27T10:43:26.171Z,95.48
2023-11-27T10:44:26.165Z,95.17
2023-11-27T10:45:26.044Z,94.45
2023-11-27T10:46:26.167Z,94.76
2023-11-27T10:47:26.080Z,95.17
2023-11-27T10:48:33.607Z,96.06
2023-11-27T10:49:26.043Z,96.11
2023-11-27T10:50:25.995Z,96.31
2023-11-27T10:51:25.987Z,95.69
2023-11-27T10:52:26.091Z,95.17
2023-11-27T10:53:25.967Z,95.59
2023-11-27T10:54:25.942Z,96.62
2023-11-27T10:55:26.292Z,96.52
2023-11-27T10:56:25.920Z,94.86
2023-11-27T10:57:25.935Z,94.24
2023-11-27T10:58:26.381Z,95.17
2023-11-27T10:59:25.905Z,95.17
2023-11-27T11:00:25.874Z,95.69
2023-11-27T11:01:25.929Z,94.86
2023-11-27T11:02:26.142Z,95.69
2023-11-27T11:03:25.863Z,95.90
2023-11-27T11:04:25.923Z,96.31
2023-11-27T11:05:25.838Z,96.83
2023-11-27T11:06:25.813Z,97.14
2023-11-27T11:07:25.907Z,97.25
2023-11-27T11:08:25.792Z,96.79
2023-11-27T11:09:25.794Z,96.37
2023-11-27T11:10:25.799Z,96.06
2023-11-27T11:11:25.776Z,96.06
2023-11-27T11:12:25.760Z,95.44
2023-11-27T11:13:25.819Z,95.13
2023-11-27T11:14:25.772Z,94.92
2023-11-27T11:15:25.772Z,95.13
2023-11-27T11:16:25.730Z,94.30
2023-11-27T11:17:25.737Z,94.61
2023-11-27T11:18:25.710Z,94.40
2023-11-27T11:19:25.718Z,94.51
2023-11-27T11:20:25.666Z,94.61
2023-11-27T11:21:28.651Z,95.75
2023-11-27T11:22:25.678Z,96.69
2023-11-27T11:23:25.655Z,96.37
2023-11-27T11:24:25.622Z,96.69
2023-11-27T11:25:25.669Z,97.00
2023-11-27T11:26:34.306Z,95.75
2023-11-27T11:27:25.665Z,95.34
2023-11-27T11:28:25.603Z,95.23
2023-11-27T11:29:25.588Z,94.82
2023-11-27T11:30:25.555Z,94.92
2023-11-27T11:31:25.658Z,95.23
2023-11-27T11:32:25.533Z,94.92
2023-11-27T11:33:25.600Z,94.09
2023-11-27T11:34:25.645Z,93.99
2023-11-27T11:35:25.511Z,93.26
2023-11-27T11:36:25.491Z,93.37
2023-11-27T11:37:25.534Z,95.03
2023-11-27T11:38:25.500Z,95.86
2023-11-27T11:39:25.545Z,95.75
2023-11-27T11:40:25.563Z,96.06
2023-11-27T11:41:25.499Z,94.55
2023-11-27T11:42:25.425Z,94.20
2023-11-27T11:43:25.500Z,93.72
2023-11-27T11:44:25.445Z,94.51
2023-11-27T11:45:25.430Z,93.41
2023-11-27T11:46:25.430Z,94.13
2023-11-27T11:47:25.465Z,94.82
2023-11-27T11:48:25.381Z,95.75
2023-11-27T11:49:25.384Z,96.69
2023-11-27T11:50:25.406Z,97.20
2023-11-27T11:51:25.358Z,97.41
2023-11-27T11:52:25.363Z,97.10
2023-11-27T11:53:25.355Z,97.20
2023-11-27T11:54:25.299Z,97.41
2023-11-27T11:55:25.398Z,97.83
2023-11-27T11:56:27.882Z,97.62
2023-11-27T11:57:25.309Z,96.89
2023-11-27T11:58:25.293Z,95.34
2023-11-27T11:59:25.283Z,94.61
2023-11-27T12:00:25.249Z,95.23
2023-11-27T12:01:25.284Z,95.34
2023-11-27T12:02:25.267Z,95.65
2023-11-27T12:03:26.947Z,95.65
2023-11-27T12:04:25.249Z,95.86
2023-11-27T12:05:25.200Z,95.65
2023-11-27T12:06:25.197Z,96.27
2023-11-27T12:07:25.247Z,97.00
2023-11-27T12:08:25.194Z,96.17
2023-11-27T12:09:25.194Z,95.03
2023-11-27T12:10:25.158Z,93.88
2023-11-27T12:11:25.163Z,95.13
2023-11-27T12:12:25.129Z,95.86
2023-11-27T12:13:25.651Z,96.06
2023-11-27T12:14:25.137Z,95.17
2023-11-27T12:15:25.121Z,93.82
2023-11-27T12:16:25.080Z,93.82
2023-11-27T12:17:25.188Z,95.28
2023-11-27T12:18:25.119Z,94.03
2023-11-27T12:19:25.090Z,94.55
2023-11-27T12:20:25.053Z,95.48
2023-11-27T12:21:25.617Z,95.17
2023-11-27T12:22:25.037Z,95.59
2023-11-27T12:23:25.026Z,95.59
2023-11-27T12:24:25.011Z,95.59
2023-11-27T12:25:25.014Z,94.86
2023-11-27T12:26:25.329Z,94.76
2023-11-27T12:27:24.960Z,93.72
2023-11-27T12:28:24.963Z,93.93
2023-11-27T12:29:24.952Z,94.13
2023-11-27T12:30:24.961Z,95.28
2023-11-27T12:31:24.998Z,96.31
2023-11-27T12:32:24.956Z,96.21
2023-11-27T12:33:24.894Z,96.11
2023-11-27T12:34:24.894Z,95.01
2023-11-27T12:35:24.881Z,95.53
2023-11-27T12:36:24.868Z,94.49
2023-11-27T12:37:24.872Z,95.73
2023-11-27T12:38:24.843Z,96.47
2023-11-27T12:39:24.868Z,96.88
2023-11-27T12:40:24.820Z,97.40
2023-11-27T12:41:25.292Z,97.71
2023-11-27T12:42:24.789Z,97.92
2023-11-27T12:43:24.813Z,97.19
2023-11-27T12:44:24.773Z,96.61
2023-11-27T12:45:24.772Z,96.92
2023-11-27T12:46:24.877Z,96.20
2023-11-27T12:47:24.881Z,95.15
2023-11-27T12:48:24.731Z,94.64
2023-11-27T12:49:24.896Z,95.57
2023-11-27T12:50:24.904Z,96.09
2023-11-27T12:51:24.726Z,97.34
2023-11-27T12:52:24.780Z,97.44
2023-11-27T12:53:24.750Z,96.92
2023-11-27T12:54:24.657Z,97.13